createdAt,value
2018-02-25T00:00:07.464Z,29.32
2018-02-25T00:00:39.550Z,29.13
2018-02-25T00:01:11.583Z,29.32
2018-02-25T00:01:43.614Z,29.41
2018-02-25T00:02:15.583Z,29.41
2018-02-25T00:02:47.603Z,29.32
2018-02-25T00:03:19.668Z,29.13
2018-02-25T00:03:51.672Z,29.32
2018-02-25T00:04:23.661Z,29.22
2018-02-25T00:04:55.803Z,29.13
2018-02-25T00:05:27.845Z,29.13
2018-02-25T00:05:59.864Z,29.22
2018-02-25T00:06:31.908Z,29.13
2018-02-25T00:07:03.933Z,29.22
2018-02-25T00:07:35.938Z,29.41
2018-02-25T00:08:08.592Z,29.13
2018-02-25T00:08:40.676Z,29.22
2018-02-25T00:09:12.659Z,29.32
2018-02-25T00:09:44.651Z,29.41
2018-02-25T00:10:16.653Z,29.13
2018-02-25T00:10:48.658Z,29.13
2018-02-25T00:11:20.666Z,29.22
2018-02-25T00:11:52.717Z,29.32
2018-02-25T00:12:24.759Z,29.32
2018-02-25T00:12:56.818Z,29.32
2018-02-25T00:13:28.828Z,29.32
2018-02-25T00:14:00.977Z,29.32
2018-02-25T00:14:32.969Z,29.22
2018-02-25T00:15:04.931Z,29.13
2018-02-25T00:15:36.935Z,29.32
2018-02-25T00:16:08.980Z,29.32
2018-02-25T00:16:41.036Z,29.51
2018-02-25T00:17:13.045Z,29.32
2018-02-25T00:17:45.070Z,29.03
2018-02-25T00:18:17.127Z,29.32
2018-02-25T00:18:49.182Z,29.32
2018-02-25T00:19:21.211Z,28.94
2018-02-25T00:19:53.221Z,29.13
2018-02-25T00:20:25.258Z,29.13
2018-02-25T00:20:57.260Z,29.41
2018-02-25T00:21:29.277Z,29.13
2018-02-25T00:22:01.390Z,29.22
2018-02-25T00:22:33.409Z,29.13
2018-02-25T00:23:05.407Z,29.32
2018-02-25T00:23:37.433Z,29.32
2018-02-25T00:24:09.531Z,29.32
2018-02-25T00:24:41.544Z,29.51
2018-02-25T00:25:13.535Z,29.51
2018-02-25T00:25:45.550Z,29.13
2018-02-25T00:26:17.590Z,29.41
2018-02-25T00:26:49.647Z,29.13
2018-02-25T00:27:21.643Z,29.32
2018-02-25T00:27:53.647Z,29.13
2018-02-25T00:28:25.681Z,29.32
2018-02-25T00:28:57.698Z,29.32
2018-02-25T00:29:29.748Z,29.03
2018-02-25T00:30:01.790Z,29.22
2018-02-25T00:30:33.877Z,29.32
2018-02-25T00:31:05.852Z,29.13
2018-02-25T00:31:37.889Z,29.32
2018-02-25T00:32:09.910Z,29.22
2018-02-25T00:32:41.950Z,29.32
2018-02-25T00:33:13.981Z,29.03
2018-02-25T00:33:46.058Z,29.32
2018-02-25T00:34:18.111Z,29.51
2018-02-25T00:34:50.120Z,29.32
2018-02-25T00:35:22.215Z,29.03
2018-02-25T00:35:54.324Z,29.51
2018-02-25T00:36:26.375Z,29.13
2018-02-25T00:36:58.386Z,29.51
2018-02-25T00:37:30.399Z,29.41
2018-02-25T00:38:02.444Z,29.13
2018-02-25T00:38:34.486Z,29.13
2018-02-25T00:39:06.502Z,29.22
2018-02-25T00:39:38.634Z,29.32
2018-02-25T00:40:10.599Z,29.32
2018-02-25T00:40:42.632Z,29.32
2018-02-25T00:41:14.707Z,29.13
2018-02-25T00:41:46.817Z,29.13
2018-02-25T00:42:18.896Z,29.32
2018-02-25T00:42:50.906Z,29.13
2018-02-25T00:43:22.988Z,29.22
2018-02-25T00:43:55.056Z,29.13
2018-02-25T00:44:27.065Z,29.32
2018-02-25T00:44:59.113Z,29.32
2018-02-25T00:45:31.115Z,29.32
2018-02-25T00:46:03.103Z,29.32
2018-02-25T00:46:35.127Z,29.13
2018-02-25T00:47:07.764Z,29.32
2018-02-25T00:47:39.823Z,29.32
2018-02-25T00:48:11.824Z,29.32
2018-02-25T00:48:43.865Z,29.22
2018-02-25T00:49:15.914Z,29.13
2018-02-25T00:49:47.904Z,29.32
2018-02-25T00:50:20.003Z,29.21
2018-02-25T00:50:52.036Z,29.13
2018-02-25T00:51:24.103Z,29.22
2018-02-25T00:51:56.110Z,29.32
2018-02-25T00:52:28.165Z,29.32
2018-02-25T00:53:00.169Z,29.32
2018-02-25T00:53:32.174Z,29.32
2018-02-25T00:54:04.204Z,29.11
2018-02-25T00:54:36.172Z,29.32
2018-02-25T00:55:08.200Z,29.41
2018-02-25T00:55:40.247Z,29.32
2018-02-25T00:56:12.249Z,29.22
2018-02-25T00:56:44.304Z,29.32
2018-02-25T00:57:16.483Z,29.13
2018-02-25T00:57:48.468Z,29.51
2018-02-25T00:58:20.535Z,29.32
2018-02-25T00:58:52.586Z,29.32
2018-02-25T00:59:24.622Z,29.41
2018-02-25T00:59:56.622Z,29.03
2018-02-25T01:00:28.650Z,29.51
2018-02-25T01:01:00.678Z,29.41
2018-02-25T01:01:32.771Z,29.32
2018-02-25T01:02:04.779Z,29.13
2018-02-25T01:02:36.810Z,29.13
2018-02-25T01:03:08.885Z,29.32
2018-02-25T01:03:40.860Z,29.13
2018-02-25T01:04:12.897Z,29.32
2018-02-25T01:04:44.899Z,29.3
2018-02-25T01:05:16.906Z,29.32
2018-02-25T01:05:48.961Z,29.3
2018-02-25T01:06:21.098Z,29.13
2018-02-25T01:06:53.131Z,29.51
2018-02-25T01:07:25.192Z,29.22
2018-02-25T01:07:57.215Z,29.22
2018-02-25T01:08:29.228Z,29.22
2018-02-25T01:09:01.233Z,29.03
2018-02-25T01:09:33.246Z,29.22
2018-02-25T01:10:05.332Z,29.22
2018-02-25T01:10:37.323Z,29.41
2018-02-25T01:11:09.375Z,29.22
2018-02-25T01:11:41.409Z,29.32
2018-02-25T01:12:13.496Z,29.22
2018-02-25T01:12:45.516Z,29.41
2018-02-25T01:13:17.576Z,29.03
2018-02-25T01:13:49.620Z,29.22
2018-02-25T01:14:21.689Z,29.22
2018-02-25T01:14:53.707Z,29.32
2018-02-25T01:15:25.757Z,29.41
2018-02-25T01:15:57.797Z,29.22
2018-02-25T01:16:29.808Z,29.03
2018-02-25T01:17:01.835Z,29.21
2018-02-25T01:17:34.775Z,29.32
2018-02-25T01:18:06.775Z,28.94
2018-02-25T01:18:38.840Z,29.03
2018-02-25T01:19:10.847Z,29.41
2018-02-25T01:19:42.867Z,29.13
2018-02-25T01:20:14.938Z,28.94
2018-02-25T01:20:46.984Z,29.13
2018-02-25T01:21:19.020Z,28.94
2018-02-25T01:21:51.041Z,29.03
2018-02-25T01:22:23.138Z,29.22
2018-02-25T01:22:55.269Z,29.03
2018-02-25T01:23:27.360Z,29.41
2018-02-25T01:23:59.355Z,29.21
2018-02-25T01:24:31.439Z,29.32
2018-02-25T01:25:03.413Z,29.03
2018-02-25T01:25:35.453Z,29.22
2018-02-25T01:26:07.488Z,29.32
2018-02-25T01:26:39.543Z,29.22
2018-02-25T01:27:11.524Z,29.41
2018-02-25T01:27:43.567Z,29.22
2018-02-25T01:28:15.588Z,29.22
2018-02-25T01:28:47.624Z,29.03
2018-02-25T01:29:19.671Z,29.22
2018-02-25T01:29:51.706Z,29.22
2018-02-25T01:30:23.738Z,29.41
2018-02-25T01:30:55.771Z,29.3
2018-02-25T01:31:27.891Z,29.41
2018-02-25T01:31:59.893Z,29.03
2018-02-25T01:32:31.916Z,29.03
2018-02-25T01:33:03.974Z,29.3
2018-02-25T01:33:36.690Z,29.41
2018-02-25T01:34:08.720Z,29.32
2018-02-25T01:34:40.733Z,29.32
2018-02-25T01:35:12.794Z,29.22
2018-02-25T01:35:44.783Z,29.03
2018-02-25T01:36:16.755Z,29.22
2018-02-25T01:36:49.520Z,29.41
2018-02-25T01:37:21.530Z,29.22
2018-02-25T01:37:53.549Z,29.32
2018-02-25T01:38:25.688Z,29.22
2018-02-25T01:38:57.705Z,29.4
2018-02-25T01:39:29.722Z,29.51
2018-02-25T01:40:01.750Z,29.22
2018-02-25T01:40:33.802Z,29.32
2018-02-25T01:41:05.801Z,29.32
2018-02-25T01:41:37.850Z,29.41
2018-02-25T01:42:09.886Z,29.41
2018-02-25T01:42:41.930Z,29.51
2018-02-25T01:43:13.966Z,29.32
2018-02-25T01:43:46.000Z,29.22
2018-02-25T01:44:17.989Z,29.51
2018-02-25T01:44:50.163Z,29.41
2018-02-25T01:45:22.233Z,29.32
2018-02-25T01:45:54.275Z,29.3
2018-02-25T01:46:26.309Z,29.13
2018-02-25T01:46:58.332Z,29.32
2018-02-25T01:47:30.341Z,29.13
2018-02-25T01:48:02.358Z,29.32
2018-02-25T01:48:34.446Z,29.51
2018-02-25T01:49:06.467Z,29.22
2018-02-25T01:49:38.491Z,29.13
2018-02-25T01:50:10.527Z,29.51
2018-02-25T01:50:42.557Z,29.51
2018-02-25T01:51:14.613Z,29.11
2018-02-25T01:51:46.638Z,29.13
2018-02-25T01:52:18.639Z,29.22
2018-02-25T01:52:50.665Z,29.11
2018-02-25T01:53:22.703Z,29.22
2018-02-25T01:53:54.814Z,29.49
2018-02-25T01:54:27.289Z,29.4
2018-02-25T01:54:59.336Z,29.22
2018-02-25T01:55:31.359Z,28.94
2018-02-25T01:56:03.411Z,29.51
2018-02-25T01:56:35.424Z,29.02
2018-02-25T01:57:07.478Z,29.13
2018-02-25T01:57:39.486Z,29.4
2018-02-25T01:58:11.520Z,29.51
2018-02-25T01:58:43.607Z,29.32
2018-02-25T01:59:15.669Z,29.22
2018-02-25T01:59:47.786Z,29.32
2018-02-25T02:00:19.820Z,29.41
2018-02-25T02:00:51.825Z,29.51
2018-02-25T02:01:23.833Z,29.32
2018-02-25T02:01:55.894Z,29.41
2018-02-25T02:02:27.939Z,29.51
2018-02-25T02:02:59.958Z,29.51
2018-02-25T02:03:31.989Z,29.49
2018-02-25T02:04:04.029Z,29.11
2018-02-25T02:04:36.011Z,29.21
2018-02-25T02:05:08.704Z,29.3
2018-02-25T02:05:40.710Z,29.32
2018-02-25T02:06:12.767Z,29.11
2018-02-25T02:06:44.813Z,29.32
2018-02-25T02:07:16.840Z,29.11
2018-02-25T02:07:48.844Z,29.3
2018-02-25T02:08:20.889Z,29.3
2018-02-25T02:08:52.858Z,29.11
2018-02-25T02:09:24.876Z,29.32
2018-02-25T02:09:56.928Z,28.84
2018-02-25T02:10:29.048Z,29.11
2018-02-25T02:11:01.139Z,29.21
2018-02-25T02:11:33.166Z,29.51
2018-02-25T02:12:05.185Z,29.3
2018-02-25T02:12:37.162Z,29.3
2018-02-25T02:13:09.219Z,29.51
2018-02-25T02:13:41.252Z,29.11
2018-02-25T02:14:13.383Z,29.21
2018-02-25T02:14:45.386Z,29.21
2018-02-25T02:15:17.396Z,29.11
2018-02-25T02:15:50.290Z,28.92
2018-02-25T02:16:22.341Z,29.21
2018-02-25T02:16:54.375Z,29.51
2018-02-25T02:17:26.416Z,29.22
2018-02-25T02:17:58.501Z,29.22
2018-02-25T02:18:30.504Z,29.41
2018-02-25T02:19:02.527Z,29.21
2018-02-25T02:19:34.574Z,29.3
2018-02-25T02:20:06.598Z,29.21
2018-02-25T02:20:38.592Z,29.49
2018-02-25T02:21:10.585Z,29.21
2018-02-25T02:21:42.603Z,29.3
2018-02-25T02:22:14.607Z,29.3
2018-02-25T02:22:46.644Z,29.02
2018-02-25T02:23:18.746Z,29.3
2018-02-25T02:23:50.792Z,29.3
2018-02-25T02:24:22.853Z,29.11
2018-02-25T02:24:54.867Z,29.21
2018-02-25T02:25:26.927Z,29.4
2018-02-25T02:25:58.963Z,28.92
2018-02-25T02:26:30.992Z,29.3
2018-02-25T02:27:02.996Z,29.49
2018-02-25T02:27:35.044Z,28.92
2018-02-25T02:28:07.086Z,29.49
2018-02-25T02:28:39.101Z,29.21
2018-02-25T02:29:11.155Z,29.3
2018-02-25T02:29:43.197Z,29.3
2018-02-25T02:30:15.211Z,29.11
2018-02-25T02:30:47.256Z,29.3
2018-02-25T02:31:19.431Z,29.3
2018-02-25T02:31:51.928Z,29.4
2018-02-25T02:32:23.941Z,29.11
2018-02-25T02:32:56.003Z,29.02
2018-02-25T02:33:28.131Z,29.49
2018-02-25T02:34:00.135Z,29.3
2018-02-25T02:34:32.131Z,28.92
2018-02-25T02:35:04.169Z,29.49
2018-02-25T02:35:36.217Z,29.3
2018-02-25T02:36:08.251Z,29.49
2018-02-25T02:36:40.295Z,29.4
2018-02-25T02:37:12.341Z,29.11
2018-02-25T02:37:44.357Z,29.3
2018-02-25T02:38:16.371Z,29.11
2018-02-25T02:38:48.423Z,29.49
2018-02-25T02:39:20.419Z,29.49
2018-02-25T02:39:52.457Z,29.3
2018-02-25T02:40:24.521Z,28.92
2018-02-25T02:40:56.563Z,29.21
2018-02-25T02:41:28.613Z,29.49
2018-02-25T02:42:00.644Z,29.3
2018-02-25T02:42:32.656Z,29.3
2018-02-25T02:43:04.684Z,29.11
2018-02-25T02:43:36.715Z,29.21
2018-02-25T02:44:08.732Z,29.02
2018-02-25T02:44:40.742Z,29.11
2018-02-25T02:45:12.810Z,29.3
2018-02-25T02:45:44.863Z,29.3
2018-02-25T02:46:16.873Z,29.4
2018-02-25T02:46:48.905Z,29.3
2018-02-25T02:47:20.924Z,29.11
2018-02-25T02:47:52.932Z,29.11
2018-02-25T02:48:25.000Z,29.3
2018-02-25T02:48:57.009Z,29.3
2018-02-25T02:49:29.044Z,29.49
2018-02-25T02:50:01.062Z,29.21
2018-02-25T02:50:33.071Z,29.11
2018-02-25T02:51:05.066Z,29.49
2018-02-25T02:51:37.175Z,29.21
2018-02-25T02:52:09.234Z,29.3
2018-02-25T02:52:41.270Z,29.49
2018-02-25T02:53:13.354Z,29.21
2018-02-25T02:53:45.399Z,29.21
2018-02-25T02:54:17.477Z,29.49
2018-02-25T02:54:49.505Z,29.3
2018-02-25T02:55:21.510Z,29.49
2018-02-25T02:55:53.622Z,29.11
2018-02-25T02:56:25.640Z,29.49
2018-02-25T02:56:57.678Z,29.3
2018-02-25T02:57:29.769Z,29.11
2018-02-25T02:58:01.803Z,29.21
2018-02-25T02:58:33.803Z,29.21
2018-02-25T02:59:05.860Z,29.21
2018-02-25T02:59:37.898Z,29.21
2018-02-25T03:00:09.948Z,29.02
2018-02-25T03:00:41.956Z,29.3
2018-02-25T03:01:13.988Z,29.3
2018-02-25T03:01:46.040Z,29.49
2018-02-25T03:02:18.101Z,29.4
2018-02-25T03:02:50.168Z,29.21
2018-02-25T03:03:22.287Z,28.92
2018-02-25T03:03:54.315Z,29.3
2018-02-25T03:04:26.384Z,29.4
2018-02-25T03:04:58.418Z,29.3
2018-02-25T03:05:30.454Z,29.4
2018-02-25T03:06:02.492Z,29.3
2018-02-25T03:06:34.541Z,29.21
2018-02-25T03:07:06.594Z,29.21
2018-02-25T03:07:38.620Z,29.02
2018-02-25T03:08:10.640Z,29.21
2018-02-25T03:08:43.124Z,29.21
2018-02-25T03:09:15.102Z,29.3
2018-02-25T03:09:47.137Z,29.21
2018-02-25T03:10:19.171Z,29.21
2018-02-25T03:10:51.174Z,29.21
2018-02-25T03:11:23.191Z,29.3
2018-02-25T03:11:55.309Z,29.4
2018-02-25T03:12:27.298Z,29.3
2018-02-25T03:12:59.343Z,29.3
2018-02-25T03:13:31.400Z,29.49
2018-02-25T03:14:03.466Z,29.3
2018-02-25T03:14:35.454Z,29.21
2018-02-25T03:15:07.471Z,29.02
2018-02-25T03:15:40.336Z,29.21
2018-02-25T03:16:12.464Z,29.21
2018-02-25T03:16:44.585Z,29.4
2018-02-25T03:17:16.621Z,29.11
2018-02-25T03:17:48.635Z,29.21
2018-02-25T03:18:20.638Z,29.02
2018-02-25T03:18:52.620Z,29.3
2018-02-25T03:19:24.659Z,29.21
2018-02-25T03:19:56.675Z,28.92
2018-02-25T03:20:28.672Z,29.4
2018-02-25T03:21:00.689Z,29.21
2018-02-25T03:21:32.714Z,29.4
2018-02-25T03:22:04.755Z,29.21
2018-02-25T03:22:36.764Z,29.49
2018-02-25T03:23:08.802Z,29.3
2018-02-25T03:23:40.835Z,29.21
2018-02-25T03:24:12.881Z,29.4
2018-02-25T03:24:44.911Z,29.3
2018-02-25T03:25:16.953Z,29.4
2018-02-25T03:25:48.978Z,29.49
2018-02-25T03:26:21.026Z,29.3
2018-02-25T03:26:53.047Z,29.4
2018-02-25T03:27:25.121Z,29.3
2018-02-25T03:27:57.163Z,29.3
2018-02-25T03:28:29.192Z,29.4
2018-02-25T03:29:01.337Z,29.3
2018-02-25T03:29:33.418Z,29.49
2018-02-25T03:30:05.435Z,29.02
2018-02-25T03:30:37.439Z,29.21
2018-02-25T03:31:09.538Z,28.92
2018-02-25T03:31:41.682Z,29.4
2018-02-25T03:32:13.755Z,29.21
2018-02-25T03:32:45.772Z,29.4
2018-02-25T03:33:17.828Z,29.4
2018-02-25T03:33:49.915Z,29.3
2018-02-25T03:34:21.984Z,29.4
2018-02-25T03:34:54.020Z,29.4
2018-02-25T03:35:26.030Z,29.11
2018-02-25T03:35:58.009Z,29.3
2018-02-25T03:36:30.019Z,29.4
2018-02-25T03:37:02.052Z,29.3
2018-02-25T03:37:34.068Z,29.49
2018-02-25T03:38:06.078Z,29.49
2018-02-25T03:38:38.075Z,29.4
2018-02-25T03:39:10.105Z,29.4
2018-02-25T03:39:42.075Z,29.4
2018-02-25T03:40:14.044Z,29.4
2018-02-25T03:40:46.065Z,29.4
2018-02-25T03:41:18.155Z,29.3
2018-02-25T03:41:50.204Z,29.3
2018-02-25T03:42:22.213Z,29.4
2018-02-25T03:42:54.259Z,29.49
2018-02-25T03:43:26.367Z,29.4
2018-02-25T03:43:58.410Z,29.3
2018-02-25T03:44:30.418Z,29.49
2018-02-25T03:45:02.461Z,29.3
2018-02-25T03:45:34.476Z,29.49
2018-02-25T03:46:06.467Z,29.4
2018-02-25T03:46:38.578Z,29.4
2018-02-25T03:47:10.594Z,29.4
2018-02-25T03:47:42.620Z,29.3
2018-02-25T03:48:14.730Z,29.49
2018-02-25T03:48:46.732Z,29.4
2018-02-25T03:49:18.741Z,29.4
2018-02-25T03:49:50.774Z,29.4
2018-02-25T03:50:22.790Z,29.4
2018-02-25T03:50:54.833Z,29.11
2018-02-25T03:51:26.862Z,29.3
2018-02-25T03:51:58.910Z,29.49
2018-02-25T03:52:30.962Z,29.11
2018-02-25T03:53:03.008Z,29.49
2018-02-25T03:53:35.046Z,29.4
2018-02-25T03:54:07.085Z,29.3
2018-02-25T03:54:39.169Z,29.3
2018-02-25T03:55:11.143Z,29.4
2018-02-25T03:55:43.158Z,29.49
2018-02-25T03:56:15.184Z,29.3
2018-02-25T03:56:47.192Z,29.3
2018-02-25T03:57:19.259Z,29.4
2018-02-25T03:57:51.243Z,29.4
2018-02-25T03:58:23.219Z,29.49
2018-02-25T03:58:55.161Z,29.21
2018-02-25T03:59:27.192Z,29.3
2018-02-25T03:59:59.263Z,29.4
2018-02-25T04:00:31.274Z,29.11
2018-02-25T04:01:03.317Z,29.11
2018-02-25T04:01:35.337Z,29.4
2018-02-25T04:02:07.383Z,29.49
2018-02-25T04:02:39.402Z,29.11
2018-02-25T04:03:11.381Z,29.4
2018-02-25T04:03:43.372Z,29.3
2018-02-25T04:04:15.399Z,29.11
2018-02-25T04:04:47.424Z,29.11
2018-02-25T04:05:19.409Z,29.21
2018-02-25T04:05:51.531Z,29.11
2018-02-25T04:06:23.558Z,29.3
2018-02-25T04:06:55.695Z,29.59
2018-02-25T04:07:27.723Z,29.11
2018-02-25T04:07:59.721Z,29.3
2018-02-25T04:08:31.747Z,29.21
2018-02-25T04:09:03.767Z,29.3
2018-02-25T04:09:35.820Z,29.4
2018-02-25T04:10:07.881Z,29.21
2018-02-25T04:10:39.883Z,29.11
2018-02-25T04:11:11.946Z,29.3
2018-02-25T04:11:43.965Z,29.59
2018-02-25T04:12:16.036Z,29.3
2018-02-25T04:12:48.030Z,29.3
2018-02-25T04:13:20.014Z,29.4
2018-02-25T04:13:52.025Z,29.21
2018-02-25T04:14:24.030Z,29.3
2018-02-25T04:14:56.169Z,29.02
2018-02-25T04:15:28.278Z,29.49
2018-02-25T04:16:00.375Z,29.21
2018-02-25T04:16:32.357Z,29.3
2018-02-25T04:17:04.393Z,29.22
2018-02-25T04:17:36.405Z,29.11
2018-02-25T04:18:08.442Z,29.11
2018-02-25T04:18:40.485Z,29.11
2018-02-25T04:19:13.162Z,29.13
2018-02-25T04:19:45.209Z,29.41
2018-02-25T04:20:17.225Z,29.41
2018-02-25T04:20:49.242Z,29.13
2018-02-25T04:21:21.246Z,29.32
2018-02-25T04:21:53.407Z,29.22
2018-02-25T04:22:25.442Z,29.22
2018-02-25T04:22:57.499Z,29.13
2018-02-25T04:23:29.618Z,28.94
2018-02-25T04:24:01.687Z,29.03
2018-02-25T04:24:33.703Z,28.84
2018-02-25T04:25:05.716Z,29.22
2018-02-25T04:25:37.794Z,28.94
2018-02-25T04:26:09.785Z,29.22
2018-02-25T04:26:41.813Z,28.94
2018-02-25T04:27:13.921Z,28.94
2018-02-25T04:27:45.934Z,28.94
2018-02-25T04:28:17.967Z,28.84
2018-02-25T04:28:50.057Z,29.03
2018-02-25T04:29:22.062Z,28.75
2018-02-25T04:29:54.134Z,28.84
2018-02-25T04:30:26.158Z,28.94
2018-02-25T04:30:58.158Z,28.75
2018-02-25T04:31:30.172Z,29.03
2018-02-25T04:32:02.202Z,28.94
2018-02-25T04:32:34.220Z,29.13
2018-02-25T04:33:06.236Z,29.14
2018-02-25T04:33:38.266Z,29.05
2018-02-25T04:34:10.311Z,29.14
2018-02-25T04:34:42.342Z,28.95
2018-02-25T04:35:14.345Z,29.05
2018-02-25T04:35:46.492Z,29.05
2018-02-25T04:36:18.496Z,29.14
2018-02-25T04:36:50.524Z,29.14
2018-02-25T04:37:22.562Z,29.14
2018-02-25T04:37:54.613Z,29.14
2018-02-25T04:38:26.649Z,28.86
2018-02-25T04:38:58.688Z,29.14
2018-02-25T04:39:30.695Z,28.86
2018-02-25T04:40:02.795Z,29.14
2018-02-25T04:40:34.821Z,28.76
2018-02-25T04:41:06.880Z,29.33
2018-02-25T04:41:39.016Z,29.25
2018-02-25T04:42:11.123Z,28.95
2018-02-25T04:42:43.135Z,28.86
2018-02-25T04:43:15.171Z,29.05
2018-02-25T04:43:47.166Z,28.97
2018-02-25T04:44:19.207Z,28.97
2018-02-25T04:44:51.192Z,28.97
2018-02-25T04:45:23.248Z,29.06
2018-02-25T04:45:55.262Z,28.97
2018-02-25T04:46:27.319Z,28.97
2018-02-25T04:46:59.341Z,28.97
2018-02-25T04:47:31.384Z,28.87
2018-02-25T04:48:03.429Z,29.06
2018-02-25T04:48:35.443Z,28.97
2018-02-25T04:49:07.464Z,28.87
2018-02-25T04:49:39.501Z,29.06
2018-02-25T04:50:11.529Z,28.87
2018-02-25T04:50:43.561Z,29.06
2018-02-25T04:51:15.620Z,28.87
2018-02-25T04:51:47.664Z,29.16
2018-02-25T04:52:19.794Z,28.97
2018-02-25T04:52:51.836Z,28.97
2018-02-25T04:53:23.873Z,28.97
2018-02-25T04:53:55.900Z,29.06
2018-02-25T04:54:27.887Z,29.16
2018-02-25T04:54:59.933Z,29.06
2018-02-25T04:55:31.949Z,29.16
2018-02-25T04:56:03.999Z,29.06
2018-02-25T04:56:36.039Z,28.77
2018-02-25T04:57:08.054Z,29.06
2018-02-25T04:57:40.077Z,28.87
2018-02-25T04:58:12.138Z,29.06
2018-02-25T04:58:44.179Z,28.77
2018-02-25T04:59:16.219Z,29.06
2018-02-25T04:59:48.239Z,28.68
2018-02-25T05:00:20.271Z,28.68
2018-02-25T05:00:52.314Z,28.68
2018-02-25T05:01:24.364Z,28.97
2018-02-25T05:01:56.413Z,28.97
2018-02-25T05:02:28.396Z,28.87
2018-02-25T05:03:00.378Z,28.97
2018-02-25T05:03:32.375Z,28.87
2018-02-25T05:04:04.409Z,28.97
2018-02-25T05:04:36.454Z,28.58
2018-02-25T05:05:08.485Z,28.87
2018-02-25T05:05:40.525Z,28.68
2018-02-25T05:06:12.530Z,28.77
2018-02-25T05:06:44.557Z,28.87
2018-02-25T05:07:16.714Z,28.87
2018-02-25T05:07:48.763Z,28.87
2018-02-25T05:08:20.804Z,28.77
2018-02-25T05:08:52.854Z,28.87
2018-02-25T05:09:24.884Z,28.77
2018-02-25T05:09:56.904Z,28.77
2018-02-25T05:10:28.930Z,28.87
2018-02-25T05:11:00.970Z,28.77
2018-02-25T05:11:33.042Z,28.87
2018-02-25T05:12:05.177Z,28.77
2018-02-25T05:12:37.216Z,28.87
2018-02-25T05:13:09.212Z,28.77
2018-02-25T05:13:41.316Z,28.77
2018-02-25T05:14:13.440Z,28.77
2018-02-25T05:14:45.488Z,28.77
2018-02-25T05:15:17.505Z,28.77
2018-02-25T05:15:49.549Z,28.77
2018-02-25T05:16:21.595Z,28.68
2018-02-25T05:16:53.613Z,28.97
2018-02-25T05:17:25.669Z,28.77
2018-02-25T05:17:57.725Z,28.77
2018-02-25T05:18:29.753Z,28.97
2018-02-25T05:19:01.800Z,28.97
2018-02-25T05:19:33.879Z,28.97
2018-02-25T05:20:05.999Z,28.87
2018-02-25T05:20:37.992Z,28.49
2018-02-25T05:21:10.011Z,28.87
2018-02-25T05:21:42.026Z,28.87
2018-02-25T05:22:14.036Z,28.97
2018-02-25T05:22:46.136Z,28.87
2018-02-25T05:23:18.163Z,28.87
2018-02-25T05:23:50.764Z,28.87
2018-02-25T05:24:22.762Z,28.77
2018-02-25T05:24:54.800Z,28.87
2018-02-25T05:25:26.963Z,28.68
2018-02-25T05:25:58.985Z,28.68
2018-02-25T05:26:30.965Z,28.77
2018-02-25T05:27:02.998Z,28.68
2018-02-25T05:27:35.041Z,28.49
2018-02-25T05:28:07.017Z,28.49
2018-02-25T05:28:39.075Z,28.77
2018-02-25T05:29:11.102Z,28.87
2018-02-25T05:29:43.130Z,28.68
2018-02-25T05:30:15.251Z,28.77
2018-02-25T05:30:47.314Z,28.49
2018-02-25T05:31:19.324Z,28.68
2018-02-25T05:31:51.342Z,28.68
2018-02-25T05:32:23.430Z,28.68
2018-02-25T05:32:55.474Z,28.39
2018-02-25T05:33:27.472Z,28.68
2018-02-25T05:33:59.607Z,28.58
2018-02-25T05:34:31.667Z,28.77
2018-02-25T05:35:03.660Z,28.77
2018-02-25T05:35:35.712Z,28.87
2018-02-25T05:36:07.776Z,28.87
2018-02-25T05:36:39.845Z,28.39
2018-02-25T05:37:11.975Z,28.77
2018-02-25T05:37:44.014Z,28.39
2018-02-25T05:38:16.029Z,28.87
2018-02-25T05:38:48.092Z,28.97
2018-02-25T05:39:20.106Z,28.58
2018-02-25T05:39:52.172Z,28.39
2018-02-25T05:40:24.156Z,28.97
2018-02-25T05:40:56.200Z,28.77
2018-02-25T05:41:28.217Z,28.77
2018-02-25T05:42:00.237Z,28.87
2018-02-25T05:42:32.269Z,28.77
2018-02-25T05:43:04.285Z,28.49
2018-02-25T05:43:36.298Z,28.68
2018-02-25T05:44:08.306Z,28.87
2018-02-25T05:44:40.353Z,28.87
2018-02-25T05:45:12.374Z,28.97
2018-02-25T05:45:44.382Z,28.77
2018-02-25T05:46:16.383Z,28.87
2018-02-25T05:46:48.405Z,28.77
2018-02-25T05:47:20.469Z,28.77
2018-02-25T05:47:52.486Z,28.77
2018-02-25T05:48:24.543Z,28.87
2018-02-25T05:48:56.555Z,28.86
2018-02-25T05:49:28.569Z,28.77
2018-02-25T05:50:00.712Z,28.76
2018-02-25T05:50:32.742Z,28.76
2018-02-25T05:51:04.786Z,28.76
2018-02-25T05:51:36.808Z,28.77
2018-02-25T05:52:08.996Z,28.86
2018-02-25T05:52:41.049Z,28.77
2018-02-25T05:53:13.098Z,28.86
2018-02-25T05:53:45.119Z,28.86
2018-02-25T05:54:17.159Z,28.86
2018-02-25T05:54:49.381Z,28.86
2018-02-25T05:55:21.360Z,28.86
2018-02-25T05:55:53.353Z,28.97
2018-02-25T05:56:25.470Z,28.86
2018-02-25T05:56:57.474Z,28.76
2018-02-25T05:57:29.516Z,28.86
2018-02-25T05:58:01.549Z,28.66
2018-02-25T05:58:33.593Z,28.95
2018-02-25T05:59:05.605Z,28.95
2018-02-25T05:59:37.615Z,28.86
2018-02-25T06:00:09.597Z,28.95
2018-02-25T06:00:41.607Z,28.95
2018-02-25T06:01:13.608Z,28.86
2018-02-25T06:01:45.703Z,28.66
2018-02-25T06:02:17.730Z,28.57
2018-02-25T06:02:49.751Z,28.86
2018-02-25T06:03:21.789Z,28.66
2018-02-25T06:03:53.735Z,28.66
2018-02-25T06:04:25.774Z,28.95
2018-02-25T06:04:57.812Z,28.95
2018-02-25T06:05:29.866Z,28.66
2018-02-25T06:06:01.901Z,28.66
2018-02-25T06:06:33.913Z,28.66
2018-02-25T06:07:06.057Z,28.76
2018-02-25T06:07:38.081Z,28.95
2018-02-25T06:08:10.186Z,28.66
2018-02-25T06:08:42.315Z,28.66
2018-02-25T06:09:14.386Z,28.86
2018-02-25T06:09:47.305Z,28.76
2018-02-25T06:10:19.351Z,28.86
2018-02-25T06:10:51.371Z,28.76
2018-02-25T06:11:23.434Z,28.86
2018-02-25T06:11:55.411Z,28.95
2018-02-25T06:12:27.444Z,29.05
2018-02-25T06:12:59.451Z,28.76
2018-02-25T06:13:31.462Z,28.95
2018-02-25T06:14:03.603Z,28.86
2018-02-25T06:14:35.731Z,28.66
2018-02-25T06:15:07.746Z,29.14
2018-02-25T06:15:39.780Z,28.66
2018-02-25T06:16:11.795Z,28.76
2018-02-25T06:16:43.790Z,29.05
2018-02-25T06:17:15.846Z,29.14
2018-02-25T06:17:47.947Z,29.05
2018-02-25T06:18:20.003Z,29.03
2018-02-25T06:18:52.003Z,29.05
2018-02-25T06:19:24.197Z,29.05
2018-02-25T06:19:56.218Z,29.14
2018-02-25T06:20:28.284Z,28.84
2018-02-25T06:21:00.284Z,28.66
2018-02-25T06:21:32.325Z,28.57
2018-02-25T06:22:04.475Z,28.76
2018-02-25T06:22:36.603Z,28.95
2018-02-25T06:23:08.656Z,28.86
2018-02-25T06:23:40.691Z,28.86
2018-02-25T06:24:13.696Z,28.86
2018-02-25T06:24:45.699Z,28.95
2018-02-25T06:25:17.704Z,28.76
2018-02-25T06:25:49.757Z,28.95
2018-02-25T06:26:21.941Z,28.76
2018-02-25T06:26:53.937Z,28.86
2018-02-25T06:27:25.952Z,28.76
2018-02-25T06:27:57.964Z,28.76
2018-02-25T06:28:29.958Z,28.76
2018-02-25T06:29:01.993Z,28.86
2018-02-25T06:29:33.997Z,28.86
2018-02-25T06:30:06.024Z,28.76
2018-02-25T06:30:38.042Z,28.47
2018-02-25T06:31:10.069Z,28.57
2018-02-25T06:31:42.078Z,28.86
2018-02-25T06:32:14.073Z,28.86
2018-02-25T06:32:46.105Z,28.86
2018-02-25T06:33:18.132Z,28.66
2018-02-25T06:33:50.180Z,28.66
2018-02-25T06:34:22.190Z,28.47
2018-02-25T06:34:54.787Z,28.57
2018-02-25T06:35:26.797Z,28.49
2018-02-25T06:35:58.790Z,28.49
2018-02-25T06:36:30.822Z,28.49
2018-02-25T06:37:02.810Z,28.58
2018-02-25T06:37:34.955Z,28.58
2018-02-25T06:38:07.056Z,28.58
2018-02-25T06:38:39.106Z,28.58
2018-02-25T06:39:11.101Z,28.77
2018-02-25T06:39:43.111Z,28.77
2018-02-25T06:40:15.168Z,28.77
2018-02-25T06:40:47.217Z,28.39
2018-02-25T06:41:19.217Z,28.68
2018-02-25T06:41:51.212Z,28.58
2018-02-25T06:42:23.320Z,28.39
2018-02-25T06:42:55.444Z,28.68
2018-02-25T06:43:27.499Z,28.3
2018-02-25T06:43:59.532Z,28.49
2018-02-25T06:44:31.573Z,28.39
2018-02-25T06:45:03.581Z,28.39
2018-02-25T06:45:35.777Z,28.49
2018-02-25T06:46:08.397Z,28.58
2018-02-25T06:46:40.414Z,28.39
2018-02-25T06:47:12.437Z,28.39
2018-02-25T06:47:44.504Z,28.49
2018-02-25T06:48:16.538Z,28.49
2018-02-25T06:48:48.580Z,28.49
2018-02-25T06:49:20.613Z,28.3
2018-02-25T06:49:52.669Z,28.3
2018-02-25T06:50:25.516Z,28.58
2018-02-25T06:50:57.562Z,28.3
2018-02-25T06:51:29.601Z,28.59
2018-02-25T06:52:01.678Z,28.39
2018-02-25T06:52:33.675Z,28.31
2018-02-25T06:53:05.744Z,28.39
2018-02-25T06:53:37.759Z,28.49
2018-02-25T06:54:09.772Z,28.58
2018-02-25T06:54:41.830Z,28.5